Terminal Aerodrome Forecast
Issued by NWS

Home | Current Version | Previous Version | Text Only | Print | Product List | Glossary Off
Versions: 1 2 3 4 5 6 7 8 9 10 11 12 13 14 15 16

000
FTUS42 KMHX 260553
TAFOAJ
TAF
KOAJ 260553Z 2606/2706 04013KT 3SM RA BR BKN004 OVC030
     FM261100 36010G18KT 5SM -DZ BR OVC005
     FM261500 01008KT 5SM BR OVC005
     FM270000 02004KT 5SM BR OVC007
      AMD LTD TO CLD VIS AND WIND=

USA.gov is the U.S. government's official web portal to all federal, state and local government web resources and services.